sensor_id;sensor_type;location;lat;lon;timestamp;temperature;humidity
20815;DHT22;10568;48.176;16.316;2022-08-30T00:00:16;17.40;99.90
20815;DHT22;10568;48.176;16.316;2022-08-30T00:03:00;17.30;99.90
20815;DHT22;10568;48.176;16.316;2022-08-30T00:05:27;17.40;99.90
20815;DHT22;10568;48.176;16.316;2022-08-30T00:07:54;17.40;99.90
20815;DHT22;10568;48.176;16.316;2022-08-30T00:10:20;17.40;99.90
20815;DHT22;10568;48.176;16.316;2022-08-30T00:12:46;17.40;99.90
20815;DHT22;10568;48.176;16.316;2022-08-30T00:15:13;17.40;99.90
20815;DHT22;10568;48.176;16.316;2022-08-30T00:17:39;17.40;99.90
20815;DHT22;10568;48.176;16.316;2022-08-30T00:20:10;17.40;99.90
20815;DHT22;10568;48.176;16.316;2022-08-30T00:22:36;17.30;99.90
20815;DHT22;10568;48.176;16.316;2022-08-30T00:25:02;17.40;99.90
20815;DHT22;10568;48.176;16.316;2022-08-30T00:27:29;17.30;99.90
20815;DHT22;10568;48.176;16.316;2022-08-30T00:29:55;17.30;99.90
20815;DHT22;10568;48.176;16.316;2022-08-30T00:32:22;17.30;99.90
20815;DHT22;10568;48.176;16.316;2022-08-30T00:34:49;17.30;99.90
20815;DHT22;10568;48.176;16.316;2022-08-30T00:37:16;17.20;99.90
20815;DHT22;10568;48.176;16.316;2022-08-30T00:39:42;17.20;99.90
20815;DHT22;10568;48.176;16.316;2022-08-30T00:42:08;17.20;99.90
20815;DHT22;10568;48.176;16.316;2022-08-30T00:44:34;17.20;99.90
20815;DHT22;10568;48.176;16.316;2022-08-30T00:47:01;17.20;99.90
20815;DHT22;10568;48.176;16.316;2022-08-30T00:49:28;17.20;99.90
20815;DHT22;10568;48.176;16.316;2022-08-30T00:51:55;17.10;99.90
20815;DHT22;10568;48.176;16.316;2022-08-30T00:54:22;17.10;99.90
20815;DHT22;10568;48.176;16.316;2022-08-30T00:56:51;17.10;99.90
20815;DHT22;10568;48.176;16.316;2022-08-30T00:59:18;17.10;99.90
20815;DHT22;10568;48.176;16.316;2022-08-30T01:01:45;17.10;99.90
20815;DHT22;10568;48.176;16.316;2022-08-30T01:04:11;17.10;99.90
20815;DHT22;10568;48.176;16.316;2022-08-30T01:06:39;17.10;99.90
20815;DHT22;10568;48.176;16.316;2022-08-30T01:09:06;17.00;99.90
20815;DHT22;10568;48.176;16.316;2022-08-30T01:11:34;17.00;99.90
20815;DHT22;10568;48.176;16.316;2022-08-30T01:14:03;17.00;99.90
20815;DHT22;10568;48.176;16.316;2022-08-30T01:16:31;16.90;99.90
20815;DHT22;10568;48.176;16.316;2022-08-30T01:18:58;16.90;99.90
20815;DHT22;10568;48.176;16.316;2022-08-30T01:21:41;16.90;99.90
20815;DHT22;10568;48.176;16.316;2022-08-30T01:24:11;16.90;99.90
20815;DHT22;10568;48.176;16.316;2022-08-30T01:26:37;16.90;99.90
20815;DHT22;10568;48.176;16.316;2022-08-30T01:29:08;16.90;99.90
20815;DHT22;10568;48.176;16.316;2022-08-30T01:31:34;16.90;99.90
20815;DHT22;10568;48.176;16.316;2022-08-30T01:34:35;16.90;99.90
20815;DHT22;10568;48.176;16.316;2022-08-30T01:37:01;16.90;99.90
20815;DHT22;10568;48.176;16.316;2022-08-30T01:39:27;16.90;99.90
20815;DHT22;10568;48.176;16.316;2022-08-30T01:41:53;16.90;99.90
20815;DHT22;10568;48.176;16.316;2022-08-30T01:44:19;16.90;99.90
20815;DHT22;10568;48.176;16.316;2022-08-30T01:46:46;16.90;99.90
20815;DHT22;10568;48.176;16.316;2022-08-30T01:49:15;16.90;99.90
20815;DHT22;10568;48.176;16.316;2022-08-30T01:51:42;16.90;99.90
20815;DHT22;10568;48.176;16.316;2022-08-30T01:54:08;16.90;99.90
20815;DHT22;10568;48.176;16.316;2022-08-30T01:56:34;16.90;99.90
20815;DHT22;10568;48.176;16.316;2022-08-30T01:59:00;16.90;99.90
20815;DHT22;10568;48.176;16.316;2022-08-30T02:01:27;16.90;99.90
20815;DHT22;10568;48.176;16.316;2022-08-30T02:03:55;16.90;99.90
20815;DHT22;10568;48.176;16.316;2022-08-30T02:06:22;16.90;99.90
20815;DHT22;10568;48.176;16.316;2022-08-30T02:08:48;16.80;99.90
20815;DHT22;10568;48.176;16.316;2022-08-30T02:11:14;16.90;99.90
20815;DHT22;10568;48.176;16.316;2022-08-30T02:13:42;16.80;99.90
20815;DHT22;10568;48.176;16.316;2022-08-30T02:16:10;16.80;99.90
20815;DHT22;10568;48.176;16.316;2022-08-30T02:18:37;16.80;99.90
20815;DHT22;10568;48.176;16.316;2022-08-30T02:21:05;16.80;99.90
20815;DHT22;10568;48.176;16.316;2022-08-30T02:23:40;16.80;99.90
20815;DHT22;10568;48.176;16.316;2022-08-30T02:26:07;16.80;99.90
20815;DHT22;10568;48.176;16.316;2022-08-30T02:28:33;16.80;99.90
20815;DHT22;10568;48.176;16.316;2022-08-30T02:31:00;16.70;99.90
20815;DHT22;10568;48.176;16.316;2022-08-30T02:33:26;16.70;99.90
20815;DHT22;10568;48.176;16.316;2022-08-30T02:35:52;16.70;99.90
20815;DHT22;10568;48.176;16.316;2022-08-30T02:38:18;16.70;99.90
20815;DHT22;10568;48.176;16.316;2022-08-30T02:40:44;16.70;99.90
20815;DHT22;10568;48.176;16.316;2022-08-30T02:43:10;16.70;99.90
20815;DHT22;10568;48.176;16.316;2022-08-30T02:45:36;16.70;99.90
20815;DHT22;10568;48.176;16.316;2022-08-30T02:48:03;16.70;99.90
20815;DHT22;10568;48.176;16.316;2022-08-30T02:50:29;16.70;99.90
20815;DHT22;10568;48.176;16.316;2022-08-30T02:52:55;16.70;99.90
20815;DHT22;10568;48.176;16.316;2022-08-30T02:55:21;16.70;99.90
20815;DHT22;10568;48.176;16.316;2022-08-30T02:57:47;16.70;99.90
20815;DHT22;10568;48.176;16.316;2022-08-30T03:00:17;16.70;99.90
20815;DHT22;10568;48.176;16.316;2022-08-30T03:02:43;16.70;99.90
20815;DHT22;10568;48.176;16.316;2022-08-30T03:05:12;16.70;99.90
20815;DHT22;10568;48.176;16.316;2022-08-30T03:07:39;16.60;99.90
20815;DHT22;10568;48.176;16.316;2022-08-30T03:10:06;16.60;99.90
20815;DHT22;10568;48.176;16.316;2022-08-30T03:12:32;16.60;99.90
20815;DHT22;10568;48.176;16.316;2022-08-30T03:14:58;16.60;99.90
20815;DHT22;10568;48.176;16.316;2022-08-30T03:17:24;16.60;99.90
20815;DHT22;10568;48.176;16.316;2022-08-30T03:19:50;16.60;99.90
20815;DHT22;10568;48.176;16.316;2022-08-30T03:22:16;16.60;99.90
20815;DHT22;10568;48.176;16.316;2022-08-30T03:24:43;16.60;99.90
20815;DHT22;10568;48.176;16.316;2022-08-30T03:27:10;16.60;99.90
20815;DHT22;10568;48.176;16.316;2022-08-30T03:29:36;16.60;99.90
20815;DHT22;10568;48.176;16.316;2022-08-30T03:32:04;16.60;99.90
20815;DHT22;10568;48.176;16.316;2022-08-30T03:34:30;16.60;99.90
20815;DHT22;10568;48.176;16.316;2022-08-30T03:36:56;16.60;99.90
20815;DHT22;10568;48.176;16.316;2022-08-30T03:39:23;16.60;99.90
20815;DHT22;10568;48.176;16.316;2022-08-30T03:41:49;16.60;99.90
20815;DHT22;10568;48.176;16.316;2022-08-30T03:44:15;16.50;99.90
20815;DHT22;10568;48.176;16.316;2022-08-30T03:46:41;16.50;99.90
20815;DHT22;10568;48.176;16.316;2022-08-30T03:49:07;16.50;99.90
20815;DHT22;10568;48.176;16.316;2022-08-30T03:51:33;16.40;99.90
20815;DHT22;10568;48.176;16.316;2022-08-30T03:53:59;16.40;99.90
20815;DHT22;10568;48.176;16.316;2022-08-30T03:56:26;16.40;99.90
20815;DHT22;10568;48.176;16.316;2022-08-30T03:58:52;16.40;99.90
20815;DHT22;10568;48.176;16.316;2022-08-30T04:01:17;16.40;99.90
20815;DHT22;10568;48.176;16.316;2022-08-30T04:03:43;16.40;99.90
20815;DHT22;10568;48.176;16.316;2022-08-30T04:06:09;16.40;99.90
20815;DHT22;10568;48.176;16.316;2022-08-30T04:08:35;16.40;99.90
20815;DHT22;10568;48.176;16.316;2022-08-30T04:11:01;16.30;99.90
20815;DHT22;10568;48.176;16.316;2022-08-30T04:13:28;16.30;99.90
20815;DHT22;10568;48.176;16.316;2022-08-30T04:15:54;16.30;99.90
20815;DHT22;10568;48.176;16.316;2022-08-30T04:18:20;16.30;99.90
20815;DHT22;10568;48.176;16.316;2022-08-30T04:20:47;16.30;99.90
20815;DHT22;10568;48.176;16.316;2022-08-30T04:23:13;16.20;99.90
20815;DHT22;10568;48.176;16.316;2022-08-30T04:25:40;16.30;99.90
20815;DHT22;10568;48.176;16.316;2022-08-30T04:28:07;16.30;99.90
20815;DHT22;10568;48.176;16.316;2022-08-30T04:30:36;16.20;99.90
20815;DHT22;10568;48.176;16.316;2022-08-30T04:33:02;16.20;99.90
20815;DHT22;10568;48.176;16.316;2022-08-30T04:35:28;16.30;99.90
20815;DHT22;10568;48.176;16.316;2022-08-30T04:37:54;16.20;99.90
20815;DHT22;10568;48.176;16.316;2022-08-30T04:40:19;16.20;99.90
20815;DHT22;10568;48.176;16.316;2022-08-30T04:42:46;16.30;99.90
20815;DHT22;10568;48.176;16.316;2022-08-30T04:45:14;16.30;99.90
20815;DHT22;10568;48.176;16.316;2022-08-30T04:47:43;16.30;99.90
20815;DHT22;10568;48.176;16.316;2022-08-30T04:50:11;16.30;99.90
20815;DHT22;10568;48.176;16.316;2022-08-30T04:52:37;16.30;99.90
20815;DHT22;10568;48.176;16.316;2022-08-30T04:55:04;16.10;99.90
20815;DHT22;10568;48.176;16.316;2022-08-30T04:57:30;16.30;99.90
20815;DHT22;10568;48.176;16.316;2022-08-30T04:59:56;16.40;99.90
20815;DHT22;10568;48.176;16.316;2022-08-30T05:02:22;16.40;99.90
20815;DHT22;10568;48.176;16.316;2022-08-30T05:04:49;16.50;99.90
20815;DHT22;10568;48.176;16.316;2022-08-30T05:07:35;16.40;99.90
20815;DHT22;10568;48.176;16.316;2022-08-30T05:10:02;16.50;99.90
20815;DHT22;10568;48.176;16.316;2022-08-30T05:12:28;16.50;99.90
20815;DHT22;10568;48.176;16.316;2022-08-30T05:14:54;16.60;99.90
20815;DHT22;10568;48.176;16.316;2022-08-30T05:17:23;16.70;99.90
20815;DHT22;10568;48.176;16.316;2022-08-30T05:19:49;16.70;99.90
20815;DHT22;10568;48.176;16.316;2022-08-30T05:22:16;16.70;99.90
20815;DHT22;10568;48.176;16.316;2022-08-30T05:24:42;16.80;99.90
20815;DHT22;10568;48.176;16.316;2022-08-30T05:27:09;16.80;99.90
20815;DHT22;10568;48.176;16.316;2022-08-30T05:29:35;16.90;99.90
20815;DHT22;10568;48.176;16.316;2022-08-30T05:32:01;16.90;99.90
20815;DHT22;10568;48.176;16.316;2022-08-30T05:34:28;17.00;99.90
20815;DHT22;10568;48.176;16.316;2022-08-30T05:36:54;17.00;99.90
20815;DHT22;10568;48.176;16.316;2022-08-30T05:39:21;17.10;99.90
20815;DHT22;10568;48.176;16.316;2022-08-30T05:41:46;17.20;99.90
20815;DHT22;10568;48.176;16.316;2022-08-30T05:44:12;17.20;99.90
20815;DHT22;10568;48.176;16.316;2022-08-30T05:46:38;17.20;99.90
20815;DHT22;10568;48.176;16.316;2022-08-30T05:49:07;17.30;99.90
20815;DHT22;10568;48.176;16.316;2022-08-30T05:51:35;17.30;99.90
20815;DHT22;10568;48.176;16.316;2022-08-30T05:54:03;17.40;99.90
20815;DHT22;10568;48.176;16.316;2022-08-30T05:56:33;17.40;99.90
20815;DHT22;10568;48.176;16.316;2022-08-30T05:59:00;17.50;99.90
20815;DHT22;10568;48.176;16.316;2022-08-30T06:01:28;17.60;99.90
20815;DHT22;10568;48.176;16.316;2022-08-30T06:03:55;17.60;99.90
20815;DHT22;10568;48.176;16.316;2022-08-30T06:06:22;17.70;99.90
20815;DHT22;10568;48.176;16.316;2022-08-30T06:08:49;17.80;99.90
20815;DHT22;10568;48.176;16.316;2022-08-30T06:11:17;17.80;99.90
20815;DHT22;10568;48.176;16.316;2022-08-30T06:13:45;17.90;99.90
20815;DHT22;10568;48.176;16.316;2022-08-30T06:16:12;18.00;99.90
20815;DHT22;10568;48.176;16.316;2022-08-30T06:18:39;18.10;99.90
20815;DHT22;10568;48.176;16.316;2022-08-30T06:21:05;18.10;99.90
20815;DHT22;10568;48.176;16.316;2022-08-30T06:23:31;18.20;99.90
20815;DHT22;10568;48.176;16.316;2022-08-30T06:26:03;18.30;99.90
20815;DHT22;10568;48.176;16.316;2022-08-30T06:28:29;18.30;99.90
20815;DHT22;10568;48.176;16.316;2022-08-30T06:30:55;18.40;99.90
20815;DHT22;10568;48.176;16.316;2022-08-30T06:33:21;18.50;99.90
20815;DHT22;10568;48.176;16.316;2022-08-30T06:35:46;18.60;99.90
20815;DHT22;10568;48.176;16.316;2022-08-30T06:38:12;18.70;99.90
20815;DHT22;10568;48.176;16.316;2022-08-30T06:40:38;18.70;99.90
20815;DHT22;10568;48.176;16.316;2022-08-30T06:43:04;18.80;99.90
20815;DHT22;10568;48.176;16.316;2022-08-30T06:45:29;18.90;99.90
20815;DHT22;10568;48.176;16.316;2022-08-30T06:47:57;19.10;99.90
20815;DHT22;10568;48.176;16.316;2022-08-30T06:50:23;19.50;99.90
20815;DHT22;10568;48.176;16.316;2022-08-30T06:52:50;19.80;99.90
20815;DHT22;10568;48.176;16.316;2022-08-30T06:55:17;20.00;99.90
20815;DHT22;10568;48.176;16.316;2022-08-30T06:57:44;20.20;99.90
20815;DHT22;10568;48.176;16.316;2022-08-30T07:00:13;20.40;99.90
20815;DHT22;10568;48.176;16.316;2022-08-30T07:02:40;20.60;99.90
20815;DHT22;10568;48.176;16.316;2022-08-30T07:05:08;20.70;99.90
20815;DHT22;10568;48.176;16.316;2022-08-30T07:07:36;21.10;99.90
20815;DHT22;10568;48.176;16.316;2022-08-30T07:10:06;21.40;99.90
20815;DHT22;10568;48.176;16.316;2022-08-30T07:12:32;21.70;99.90
20815;DHT22;10568;48.176;16.316;2022-08-30T07:14:58;21.90;99.90
20815;DHT22;10568;48.176;16.316;2022-08-30T07:17:24;22.20;99.90
20815;DHT22;10568;48.176;16.316;2022-08-30T07:20:08;22.40;99.90
20815;DHT22;10568;48.176;16.316;2022-08-30T07:22:34;22.40;99.90
20815;DHT22;10568;48.176;16.316;2022-08-30T07:25:01;22.60;99.90
20815;DHT22;10568;48.176;16.316;2022-08-30T07:27:26;22.80;99.90
20815;DHT22;10568;48.176;16.316;2022-08-30T07:29:52;23.10;99.90
20815;DHT22;10568;48.176;16.316;2022-08-30T07:32:18;23.30;99.90
20815;DHT22;10568;48.176;16.316;2022-08-30T07:34:44;23.50;99.90
20815;DHT22;10568;48.176;16.316;2022-08-30T07:37:10;23.60;99.90
20815;DHT22;10568;48.176;16.316;2022-08-30T07:39:35;23.80;99.90
20815;DHT22;10568;48.176;16.316;2022-08-30T07:42:01;23.90;99.90
20815;DHT22;10568;48.176;16.316;2022-08-30T07:44:27;23.90;99.90
20815;DHT22;10568;48.176;16.316;2022-08-30T07:46:52;24.10;99.90
20815;DHT22;10568;48.176;16.316;2022-08-30T07:49:18;24.20;99.90
20815;DHT22;10568;48.176;16.316;2022-08-30T07:51:44;24.30;99.90
20815;DHT22;10568;48.176;16.316;2022-08-30T07:54:10;24.40;99.90
20815;DHT22;10568;48.176;16.316;2022-08-30T07:56:36;24.40;99.90
20815;DHT22;10568;48.176;16.316;2022-08-30T07:59:02;24.30;99.90
20815;DHT22;10568;48.176;16.316;2022-08-30T08:01:28;24.40;99.90
20815;DHT22;10568;48.176;16.316;2022-08-30T08:03:55;24.50;99.90
20815;DHT22;10568;48.176;16.316;2022-08-30T08:06:23;24.50;99.90
20815;DHT22;10568;48.176;16.316;2022-08-30T08:08:50;24.90;99.90
20815;DHT22;10568;48.176;16.316;2022-08-30T08:11:19;25.00;99.90
20815;DHT22;10568;48.176;16.316;2022-08-30T08:13:47;25.10;99.90
20815;DHT22;10568;48.176;16.316;2022-08-30T08:16:13;25.20;99.90
20815;DHT22;10568;48.176;16.316;2022-08-30T08:18:39;25.40;99.90
20815;DHT22;10568;48.176;16.316;2022-08-30T08:21:04;25.80;99.90
20815;DHT22;10568;48.176;16.316;2022-08-30T08:23:30;25.70;99.90
20815;DHT22;10568;48.176;16.316;2022-08-30T08:25:56;26.00;99.90
20815;DHT22;10568;48.176;16.316;2022-08-30T08:28:23;26.00;99.90
20815;DHT22;10568;48.176;16.316;2022-08-30T08:30:49;25.80;99.90
20815;DHT22;10568;48.176;16.316;2022-08-30T08:33:17;26.10;99.90
20815;DHT22;10568;48.176;16.316;2022-08-30T08:35:44;26.50;99.90
20815;DHT22;10568;48.176;16.316;2022-08-30T08:38:10;26.80;99.90
20815;DHT22;10568;48.176;16.316;2022-08-30T08:43:56;27.30;99.90
20815;DHT22;10568;48.176;16.316;2022-08-30T08:46:35;27.50;99.90
20815;DHT22;10568;48.176;16.316;2022-08-30T08:49:06;27.60;99.90
20815;DHT22;10568;48.176;16.316;2022-08-30T08:51:35;27.50;99.90
20815;DHT22;10568;48.176;16.316;2022-08-30T08:54:38;27.70;99.90
20815;DHT22;10568;48.176;16.316;2022-08-30T08:57:07;27.70;99.90
20815;DHT22;10568;48.176;16.316;2022-08-30T08:59:33;28.00;99.90
20815;DHT22;10568;48.176;16.316;2022-08-30T09:02:01;27.80;99.90
20815;DHT22;10568;48.176;16.316;2022-08-30T09:04:35;28.00;99.90
20815;DHT22;10568;48.176;16.316;2022-08-30T09:09:33;28.40;99.90
20815;DHT22;10568;48.176;16.316;2022-08-30T09:11:59;28.50;98.80
20815;DHT22;10568;48.176;16.316;2022-08-30T09:14:29;28.60;99.90
20815;DHT22;10568;48.176;16.316;2022-08-30T09:17:05;28.40;99.90
20815;DHT22;10568;48.176;16.316;2022-08-30T09:19:37;28.50;99.90
20815;DHT22;10568;48.176;16.316;2022-08-30T09:24:45;29.00;97.70
20815;DHT22;10568;48.176;16.316;2022-08-30T09:27:22;28.40;95.00
20815;DHT22;10568;48.176;16.316;2022-08-30T09:33:29;28.70;98.50
20815;DHT22;10568;48.176;16.316;2022-08-30T09:35:56;29.10;99.90
20815;DHT22;10568;48.176;16.316;2022-08-30T09:38:33;28.80;97.80
20815;DHT22;10568;48.176;16.316;2022-08-30T09:41:24;29.10;98.30
20815;DHT22;10568;48.176;16.316;2022-08-30T09:44:07;28.60;93.80
20815;DHT22;10568;48.176;16.316;2022-08-30T09:46:33;28.90;94.40
20815;DHT22;10568;48.176;16.316;2022-08-30T09:49:36;29.20;95.00
20815;DHT22;10568;48.176;16.316;2022-08-30T09:52:28;29.20;95.20
20815;DHT22;10568;48.176;16.316;2022-08-30T10:00:25;29.90;99.70
20815;DHT22;10568;48.176;16.316;2022-08-30T10:03:19;29.70;95.30
20815;DHT22;10568;48.176;16.316;2022-08-30T10:06:11;30.10;97.10
20815;DHT22;10568;48.176;16.316;2022-08-30T10:25:56;30.20;96.10
20815;DHT22;10568;48.176;16.316;2022-08-30T10:28:32;30.00;96.30
20815;DHT22;10568;48.176;16.316;2022-08-30T10:31:04;30.50;96.40
20815;DHT22;10568;48.176;16.316;2022-08-30T10:33:41;30.20;93.10
20815;DHT22;10568;48.176;16.316;2022-08-30T10:36:11;30.60;96.90
20815;DHT22;10568;48.176;16.316;2022-08-30T10:38:47;30.60;95.80
20815;DHT22;10568;48.176;16.316;2022-08-30T10:41:33;30.50;93.80
20815;DHT22;10568;48.176;16.316;2022-08-30T10:44:08;30.50;94.50
20815;DHT22;10568;48.176;16.316;2022-08-30T10:47:17;30.70;95.10
20815;DHT22;10568;48.176;16.316;2022-08-30T10:49:47;30.70;96.80
20815;DHT22;10568;48.176;16.316;2022-08-30T10:52:39;31.10;97.20
20815;DHT22;10568;48.176;16.316;2022-08-30T10:57:34;30.50;92.40
20815;DHT22;10568;48.176;16.316;2022-08-30T11:00:05;30.70;94.50
20815;DHT22;10568;48.176;16.316;2022-08-30T11:10:23;31.50;95.50
20815;DHT22;10568;48.176;16.316;2022-08-30T11:15:51;31.10;97.80
20815;DHT22;10568;48.176;16.316;2022-08-30T11:18:17;31.10;90.40
20815;DHT22;10568;48.176;16.316;2022-08-30T11:20:46;31.40;99.70
20815;DHT22;10568;48.176;16.316;2022-08-30T11:26:03;31.80;92.40
20815;DHT22;10568;48.176;16.316;2022-08-30T11:33:46;32.20;97.30
20815;DHT22;10568;48.176;16.316;2022-08-30T11:41:33;31.70;89.40
20815;DHT22;10568;48.176;16.316;2022-08-30T11:44:13;31.50;89.40
20815;DHT22;10568;48.176;16.316;2022-08-30T11:46:40;31.10;89.30
20815;DHT22;10568;48.176;16.316;2022-08-30T11:57:41;31.00;89.70
20815;DHT22;10568;48.176;16.316;2022-08-30T12:00:28;31.50;92.20
20815;DHT22;10568;48.176;16.316;2022-08-30T12:10:55;32.20;86.20
20815;DHT22;10568;48.176;16.316;2022-08-30T12:16:33;31.60;86.40
20815;DHT22;10568;48.176;16.316;2022-08-30T12:19:14;31.50;90.70
20815;DHT22;10568;48.176;16.316;2022-08-30T12:21:40;31.20;86.10
20815;DHT22;10568;48.176;16.316;2022-08-30T12:24:16;31.40;89.80
20815;DHT22;10568;48.176;16.316;2022-08-30T12:26:45;31.40;84.50
20815;DHT22;10568;48.176;16.316;2022-08-30T12:29:29;31.50;88.10
20815;DHT22;10568;48.176;16.316;2022-08-30T12:31:58;31.80;87.80
20815;DHT22;10568;48.176;16.316;2022-08-30T12:37:32;31.80;89.50
20815;DHT22;10568;48.176;16.316;2022-08-30T12:40:11;31.50;89.70
20815;DHT22;10568;48.176;16.316;2022-08-30T12:42:41;31.60;91.50
20815;DHT22;10568;48.176;16.316;2022-08-30T12:45:14;31.80;89.40
20815;DHT22;10568;48.176;16.316;2022-08-30T12:47:53;32.10;87.40
20815;DHT22;10568;48.176;16.316;2022-08-30T12:50:27;31.70;83.50
20815;DHT22;10568;48.176;16.316;2022-08-30T12:53:06;31.00;84.80
20815;DHT22;10568;48.176;16.316;2022-08-30T12:55:35;30.80;83.60
20815;DHT22;10568;48.176;16.316;2022-08-30T12:58:05;31.30;83.90
20815;DHT22;10568;48.176;16.316;2022-08-30T13:00:42;31.10;86.00
20815;DHT22;10568;48.176;16.316;2022-08-30T13:05:54;31.70;91.80
20815;DHT22;10568;48.176;16.316;2022-08-30T13:11:27;31.50;88.40
20815;DHT22;10568;48.176;16.316;2022-08-30T13:13:55;31.60;83.90
20815;DHT22;10568;48.176;16.316;2022-08-30T13:16:26;31.70;87.70
20815;DHT22;10568;48.176;16.316;2022-08-30T13:21:56;31.90;88.80
20815;DHT22;10568;48.176;16.316;2022-08-30T13:24:23;31.80;93.90
20815;DHT22;10568;48.176;16.316;2022-08-30T13:26:49;31.90;83.10
20815;DHT22;10568;48.176;16.316;2022-08-30T13:29:23;32.00;80.60
20815;DHT22;10568;48.176;16.316;2022-08-30T13:31:49;31.50;87.50
20815;DHT22;10568;48.176;16.316;2022-08-30T13:34:15;31.60;87.10
20815;DHT22;10568;48.176;16.316;2022-08-30T13:36:53;31.50;82.70
20815;DHT22;10568;48.176;16.316;2022-08-30T13:39:19;31.50;82.00
20815;DHT22;10568;48.176;16.316;2022-08-30T13:41:45;31.10;80.00
20815;DHT22;10568;48.176;16.316;2022-08-30T13:44:11;31.30;83.90
20815;DHT22;10568;48.176;16.316;2022-08-30T13:46:39;30.70;82.50
20815;DHT22;10568;48.176;16.316;2022-08-30T13:49:08;30.60;85.60
20815;DHT22;10568;48.176;16.316;2022-08-30T13:51:35;30.40;82.60
20815;DHT22;10568;48.176;16.316;2022-08-30T13:54:01;30.80;83.00
20815;DHT22;10568;48.176;16.316;2022-08-30T13:56:29;31.10;80.70
20815;DHT22;10568;48.176;16.316;2022-08-30T13:59:00;30.80;82.70
20815;DHT22;10568;48.176;16.316;2022-08-30T14:01:27;30.90;82.50
20815;DHT22;10568;48.176;16.316;2022-08-30T14:03:53;30.80;81.10
20815;DHT22;10568;48.176;16.316;2022-08-30T14:06:20;31.20;88.40
20815;DHT22;10568;48.176;16.316;2022-08-30T14:08:46;30.90;78.50
20815;DHT22;10568;48.176;16.316;2022-08-30T14:11:13;30.80;79.80
20815;DHT22;10568;48.176;16.316;2022-08-30T14:13:40;30.90;89.40
20815;DHT22;10568;48.176;16.316;2022-08-30T14:16:08;31.10;89.30
20815;DHT22;10568;48.176;16.316;2022-08-30T14:18:34;31.40;83.80
20815;DHT22;10568;48.176;16.316;2022-08-30T14:21:00;31.50;87.70
20815;DHT22;10568;48.176;16.316;2022-08-30T14:23:26;31.20;80.20
20815;DHT22;10568;48.176;16.316;2022-08-30T14:25:53;31.10;82.00
20815;DHT22;10568;48.176;16.316;2022-08-30T14:28:20;30.90;91.70
20815;DHT22;10568;48.176;16.316;2022-08-30T14:30:46;30.60;83.80
20815;DHT22;10568;48.176;16.316;2022-08-30T14:33:12;30.10;81.50
20815;DHT22;10568;48.176;16.316;2022-08-30T14:35:38;29.90;86.60
20815;DHT22;10568;48.176;16.316;2022-08-30T14:38:04;29.20;86.10
20815;DHT22;10568;48.176;16.316;2022-08-30T14:40:30;29.10;83.00
20815;DHT22;10568;48.176;16.316;2022-08-30T14:42:56;28.80;86.10
20815;DHT22;10568;48.176;16.316;2022-08-30T14:45:21;28.40;85.10
20815;DHT22;10568;48.176;16.316;2022-08-30T14:47:47;28.20;86.60
20815;DHT22;10568;48.176;16.316;2022-08-30T14:50:14;28.00;86.90
20815;DHT22;10568;48.176;16.316;2022-08-30T14:52:49;27.80;85.60
20815;DHT22;10568;48.176;16.316;2022-08-30T14:55:14;27.60;84.70
20815;DHT22;10568;48.176;16.316;2022-08-30T14:57:40;27.40;86.00
20815;DHT22;10568;48.176;16.316;2022-08-30T15:03:28;27.10;88.00
20815;DHT22;10568;48.176;16.316;2022-08-30T15:05:54;26.90;88.20
20815;DHT22;10568;48.176;16.316;2022-08-30T15:08:19;26.80;88.00
20815;DHT22;10568;48.176;16.316;2022-08-30T15:10:45;26.70;90.90
20815;DHT22;10568;48.176;16.316;2022-08-30T15:13:12;26.60;90.90
20815;DHT22;10568;48.176;16.316;2022-08-30T15:15:46;26.60;85.80
20815;DHT22;10568;48.176;16.316;2022-08-30T15:18:12;26.60;87.50
20815;DHT22;10568;48.176;16.316;2022-08-30T15:20:45;26.50;90.60
20815;DHT22;10568;48.176;16.316;2022-08-30T15:23:11;26.50;87.20
20815;DHT22;10568;48.176;16.316;2022-08-30T15:25:36;26.30;87.20
20815;DHT22;10568;48.176;16.316;2022-08-30T15:31:26;26.10;89.90
20815;DHT22;10568;48.176;16.316;2022-08-30T15:33:54;26.00;91.60
20815;DHT22;10568;48.176;16.316;2022-08-30T15:36:20;25.90;89.10
20815;DHT22;10568;48.176;16.316;2022-08-30T15:38:46;25.80;91.30
20815;DHT22;10568;48.176;16.316;2022-08-30T15:41:13;25.70;89.50
20815;DHT22;10568;48.176;16.316;2022-08-30T15:43:40;25.70;91.80
20815;DHT22;10568;48.176;16.316;2022-08-30T15:48:44;25.50;90.30
20815;DHT22;10568;48.176;16.316;2022-08-30T15:51:10;25.50;90.30
20815;DHT22;10568;48.176;16.316;2022-08-30T15:53:36;25.50;90.60
20815;DHT22;10568;48.176;16.316;2022-08-30T15:56:02;25.40;91.30
20815;DHT22;10568;48.176;16.316;2022-08-30T15:58:28;25.30;91.60
20815;DHT22;10568;48.176;16.316;2022-08-30T16:00:54;25.30;91.70
20815;DHT22;10568;48.176;16.316;2022-08-30T16:03:20;25.20;90.60
20815;DHT22;10568;48.176;16.316;2022-08-30T16:05:45;25.10;91.40
20815;DHT22;10568;48.176;16.316;2022-08-30T16:08:11;25.10;90.60
20815;DHT22;10568;48.176;16.316;2022-08-30T16:10:40;25.00;92.90
20815;DHT22;10568;48.176;16.316;2022-08-30T16:13:06;24.90;91.60
20815;DHT22;10568;48.176;16.316;2022-08-30T16:15:32;24.90;91.20
20815;DHT22;10568;48.176;16.316;2022-08-30T16:17:57;24.80;92.40
20815;DHT22;10568;48.176;16.316;2022-08-30T16:20:23;24.70;92.40
20815;DHT22;10568;48.176;16.316;2022-08-30T16:22:50;24.60;92.40
20815;DHT22;10568;48.176;16.316;2022-08-30T16:25:15;24.50;91.10
20815;DHT22;10568;48.176;16.316;2022-08-30T16:27:41;24.50;92.70
20815;DHT22;10568;48.176;16.316;2022-08-30T16:30:12;24.50;93.80
20815;DHT22;10568;48.176;16.316;2022-08-30T16:32:38;24.40;91.30
20815;DHT22;10568;48.176;16.316;2022-08-30T16:35:05;24.40;92.90
20815;DHT22;10568;48.176;16.316;2022-08-30T16:37:31;24.40;94.40
20815;DHT22;10568;48.176;16.316;2022-08-30T16:39:57;24.30;92.10
20815;DHT22;10568;48.176;16.316;2022-08-30T16:42:23;24.30;91.40
20815;DHT22;10568;48.176;16.316;2022-08-30T16:44:49;24.30;91.70
20815;DHT22;10568;48.176;16.316;2022-08-30T16:47:14;24.30;91.80
20815;DHT22;10568;48.176;16.316;2022-08-30T16:49:40;24.30;91.80
20815;DHT22;10568;48.176;16.316;2022-08-30T16:52:06;24.20;92.80
20815;DHT22;10568;48.176;16.316;2022-08-30T16:54:32;24.20;92.30
20815;DHT22;10568;48.176;16.316;2022-08-30T16:56:58;24.10;93.00
20815;DHT22;10568;48.176;16.316;2022-08-30T16:59:24;24.00;92.10
20815;DHT22;10568;48.176;16.316;2022-08-30T17:01:50;24.00;93.50
20815;DHT22;10568;48.176;16.316;2022-08-30T17:04:16;23.90;94.30